Notice: Undefined index: language in /home/u908952976/domains/airgaviota-va.com/public_html/vam/index.php on line 25
AirGaviota-VA

... VIRTUAL FLIGHT...OUR PASSION



 FLIGHT DETAILS
Pilot: GVT462 Peter Voksan Aircraft: AN24_FELIS AIRGAVIOTA Distance: 78NM
Departure MUHA Arrival MUNG Duration 00:26
Validation Validated Type Charter Tail Number GV-154
ZFW 16639 Block Fuel/Initial FOB 479/0 Flight Fuel 311
Passengers 20 Cargo 0 Alternate MUSN
Departure Time 2200 Cruise Speed 240 Flight Level 6000
Flight Type IFR Aircraft Type AN24 Weight Unit Kg
Date 24-04-2020 Pilot Comments Network IVAO
Crashed No Validator Comments Flight Rating 0

 ROUTE
ROUTE UHA DCT UNG
REMARKS
 FLIGHT FAILURES
Crashed OK Beacon off & Engine Running OK KIAS Above 250 below 10000 FT OK
Lights OFF below 10000 FT OK Lights ON above 10000 FT OK Stall OK
Overspeed OK Flight paused OK Refueling OK
Slew detected OK Taxi & Taxi lights off Fail Take off & lights off OK
Landing & lights off OK Landed in not planned airport OK Taxi Speed OK
Wrong altimeter in Take off OK Wrong altimeter in Landing OK
 LANDING ANALYSIS
Landing wind 179º/12 kt Landing heading 308
Landing VS: -179.16 ft/min Landing IAS: 91.43 kt
Landing Force G 1 G Landing Bank -0.3
Landing Pitch 2.6 Landing Flaps 38
Navigation Lights ON Landing Lights ON
Beacon Lights ON Strobe Lights OFF
 FLIGHT MAP
 ALTITUDE CHART
 FLIGHT FINANCIAL REPORT
 MAIN EVENTS
DATE EVENTIASALTITUDE
2020-04-23 23:49:39 SIM ACARS version 1.4.10220
2020-04-23 23:49:39 BOARDING0220
2020-04-23 23:51:43 STARTING ENGINE 3 0220
2020-04-23 23:52:58 STARTING ENGINE 1 0220
2020-04-23 23:53:50 STARTING ENGINE 2 0220
2020-04-23 23:55:13 STOPPING ENGINE 3 0220
2020-04-23 23:57:15 FLAPS EXTENSION 1 % 0220
2020-04-23 23:57:15 FLAPS EXTENSION 4 % 0220
2020-04-23 23:57:15 FLAPS EXTENSION 5 % 0220
2020-04-23 23:57:15 FLAPS EXTENSION 6 % 0220
2020-04-23 23:57:15 FLAPS EXTENSION 7 % 0220
2020-04-23 23:57:16 FLAPS EXTENSION 8 % 0220
2020-04-23 23:57:16 FLAPS EXTENSION 10 % 0220
2020-04-23 23:57:18 FLAPS EXTENSION 11 % 0220
2020-04-23 23:57:18 FLAPS EXTENSION 12 % 0220
2020-04-23 23:57:18 FLAPS EXTENSION 13 % 0220
2020-04-23 23:57:18 FLAPS EXTENSION 14 % 0220
2020-04-23 23:57:18 FLAPS EXTENSION 17 % 0220
2020-04-23 23:57:19 FLAPS EXTENSION 18 % 0220
2020-04-23 23:57:19 FLAPS EXTENSION 18 % 0220
2020-04-23 23:57:20 FLAPS EXTENSION 19 % 0220
2020-04-23 23:57:20 FLAPS EXTENSION 20 % 0220
2020-04-23 23:57:20 FLAPS EXTENSION 23 % 0220
2020-04-23 23:57:20 FLAPS EXTENSION 24 % 0220
2020-04-23 23:57:21 FLAPS EXTENSION 25 % 0220
2020-04-23 23:57:21 FLAPS EXTENSION 27 % 0220
2020-04-23 23:57:21 FLAPS EXTENSION 30 % 0220
2020-04-23 23:57:21 FLAPS EXTENSION 32 % 0220
2020-04-23 23:57:22 FLAPS EXTENSION 33 % 0220
2020-04-23 23:57:22 FLAPS EXTENSION 34 % 0220
2020-04-23 23:57:22 FLAPS EXTENSION 35 % 0220
2020-04-23 23:57:22 FLAPS EXTENSION 36 % 0220
2020-04-23 23:57:22 FLAPS EXTENSION 37 % 0220
2020-04-24 00:06:28 TAXI TO THE RWY 1216
2020-04-24 00:06:28 TAXING WITH TAXI LIGHTS OFF1216
2020-04-24 00:10:31 ROLLING FOR TAKE OFF53220
2020-04-24 00:10:56 GEAR UP109348
2020-04-24 00:10:58 FLAPS EXTENSION 36 % 110379
2020-04-24 00:10:58 FLAPS EXTENSION 35 % 110383
2020-04-24 00:10:58 FLAPS EXTENSION 33 % 110385
2020-04-24 00:10:58 FLAPS EXTENSION 30 % 112390
2020-04-24 00:10:58 FLAPS EXTENSION 29 % 112393
2020-04-24 00:10:59 FLAPS EXTENSION 28 % 112397
2020-04-24 00:10:59 FLAPS EXTENSION 27 % 112400
2020-04-24 00:10:59 FLAPS EXTENSION 25 % 112403
2020-04-24 00:10:59 FLAPS EXTENSION 24 % 113406
2020-04-24 00:10:59 FLAPS EXTENSION 23 % 113409
2020-04-24 00:10:59 FLAPS EXTENSION 22 % 113411
2020-04-24 00:11:00 FLAPS EXTENSION 21 % 113416
2020-04-24 00:11:00 FLAPS EXTENSION 19 % 113417
2020-04-24 00:11:00 FLAPS EXTENSION 18 % 113422
2020-04-24 00:11:00 FLAPS EXTENSION 17 % 113424
2020-04-24 00:11:00 FLAPS EXTENSION 17 % 113427
2020-04-24 00:11:19 FLAPS EXTENSION 16 % 119829
2020-04-24 00:11:19 FLAPS EXTENSION 15 % 119834
2020-04-24 00:11:20 FLAPS EXTENSION 13 % 119838
2020-04-24 00:11:20 FLAPS EXTENSION 12 % 119843
2020-04-24 00:11:20 FLAPS EXTENSION 10 % 119848
2020-04-24 00:11:20 FLAPS EXTENSION 9 % 119854
2020-04-24 00:11:20 FLAPS EXTENSION 7 % 119859
2020-04-24 00:11:21 FLAPS EXTENSION 6 % 119863
2020-04-24 00:11:21 FLAPS EXTENSION 5 % 119868
2020-04-24 00:11:21 FLAPS EXTENSION 3 % 119873
2020-04-24 00:11:21 FLAPS EXTENSION 2 % 120878
2020-04-24 00:11:22 FLAPS EXTENSION 2 % 120887
2020-04-24 00:11:22 TAKE OFF122898
2020-04-24 00:11:22 FLAPS EXTENSION 0 % 122898
2020-04-24 00:16:14 GEAR DOWN1975900
2020-04-24 00:16:14 GEAR UP1975901
2020-04-24 00:16:31 CRUISE2015956
2020-04-24 00:20:31 DESCEND2085944
2020-04-24 00:21:11 CRUISE2066002
2020-04-24 00:24:11 DESCEND2065790
2020-04-24 00:28:07 CRUISE2023031
2020-04-24 00:29:17 DESCEND2142988
2020-04-24 00:31:47 CRUISE2022084
2020-04-24 00:32:27 CLIMBING1972023
2020-04-24 00:32:59 GEAR DOWN1872141
2020-04-24 00:33:17 FLAPS EXTENSION 2 % 1492170
2020-04-24 00:33:17 FLAPS EXTENSION 4 % 1492168
2020-04-24 00:33:18 FLAPS EXTENSION 6 % 1492167
2020-04-24 00:33:18 FLAPS EXTENSION 6 % 1492165
2020-04-24 00:33:28 FLAPS EXTENSION 8 % 1412044
2020-04-24 00:33:29 FLAPS EXTENSION 11 % 1412037
2020-04-24 00:33:29 FLAPS EXTENSION 13 % 1402034
2020-04-24 00:33:29 FLAPS EXTENSION 14 % 1402035
2020-04-24 00:33:29 FLAPS EXTENSION 15 % 1402032
2020-04-24 00:33:37 FLAPS EXTENSION 17 % 1371911
2020-04-24 00:33:37 FLAPS EXTENSION 19 % 1371907
2020-04-24 00:33:38 FLAPS EXTENSION 20 % 1371901
2020-04-24 00:33:38 FLAPS EXTENSION 22 % 1371898
2020-04-24 00:33:47 DESCEND1341749
2020-04-24 00:33:51 FLAPS EXTENSION 23 % 1321703
2020-04-24 00:33:51 FLAPS EXTENSION 24 % 1311702
2020-04-24 00:33:51 FLAPS EXTENSION 26 % 1311701
2020-04-24 00:33:52 FLAPS EXTENSION 27 % 1311699
2020-04-24 00:33:52 FLAPS EXTENSION 29 % 1301698
2020-04-24 00:33:52 FLAPS EXTENSION 30 % 1301697
2020-04-24 00:33:53 FLAPS EXTENSION 32 % 1281695
2020-04-24 00:33:53 FLAPS EXTENSION 33 % 1281694
2020-04-24 00:33:53 FLAPS EXTENSION 34 % 1271697
2020-04-24 00:33:53 FLAPS EXTENSION 36 % 1271695
2020-04-24 00:33:54 FLAPS EXTENSION 37 % 1261695
2020-04-24 00:33:54 FLAPS EXTENSION 37 % 1261691
2020-04-24 00:34:04 FLAPS EXTENSION 38 % 1191574
2020-04-24 00:34:04 FLAPS EXTENSION 39 % 1191570
2020-04-24 00:34:04 FLAPS EXTENSION 41 % 1191565
2020-04-24 00:34:04 FLAPS EXTENSION 42 % 1191559
2020-04-24 00:34:05 FLAPS EXTENSION 44 % 1191554
2020-04-24 00:34:05 FLAPS EXTENSION 45 % 1191550
2020-04-24 00:34:05 FLAPS EXTENSION 47 % 1191546
2020-04-24 00:34:05 FLAPS EXTENSION 48 % 1191541
2020-04-24 00:34:05 FLAPS EXTENSION 49 % 1191538
2020-04-24 00:34:06 FLAPS EXTENSION 51 % 1181532
2020-04-24 00:34:06 FLAPS EXTENSION 52 % 1181527
2020-04-24 00:34:06 FLAPS EXTENSION 53 % 1181522
2020-04-24 00:34:07 FLAPS EXTENSION 55 % 1181515
2020-04-24 00:34:07 FLAPS EXTENSION 56 % 1181513
2020-04-24 00:34:07 FLAPS EXTENSION 57 % 1181508
2020-04-24 00:34:07 FLAPS EXTENSION 58 % 1181505
2020-04-24 00:34:07 FLAPS EXTENSION 59 % 1171501
2020-04-24 00:34:08 FLAPS EXTENSION 61 % 1171495
2020-04-24 00:34:08 FLAPS EXTENSION 62 % 1171496
2020-04-24 00:34:08 FLAPS EXTENSION 63 % 1171488
2020-04-24 00:34:08 FLAPS EXTENSION 64 % 1171485
2020-04-24 00:34:09 FLAPS EXTENSION 65 % 1161481
2020-04-24 00:34:09 FLAPS EXTENSION 66 % 1161478
2020-04-24 00:34:09 FLAPS EXTENSION 67 % 1161474
2020-04-24 00:34:09 FLAPS EXTENSION 68 % 1161471
2020-04-24 00:34:10 FLAPS EXTENSION 69 % 1161466
2020-04-24 00:34:10 FLAPS EXTENSION 70 % 1151464
2020-04-24 00:34:10 FLAPS EXTENSION 72 % 1151461
2020-04-24 00:34:10 FLAPS EXTENSION 74 % 1151454
2020-04-24 00:34:11 FLAPS EXTENSION 75 % 1141451
2020-04-24 00:34:11 FLAPS EXTENSION 76 % 1141448
2020-04-24 00:34:11 FLAPS EXTENSION 77 % 1141446
2020-04-24 00:34:12 FLAPS EXTENSION 78 % 1131440
2020-04-24 00:34:12 FLAPS EXTENSION 79 % 1131436
2020-04-24 00:34:12 FLAPS EXTENSION 80 % 1121435
2020-04-24 00:34:13 FLAPS EXTENSION 82 % 1121430
2020-04-24 00:34:13 FLAPS EXTENSION 83 % 1111428
2020-04-24 00:34:13 FLAPS EXTENSION 84 % 1111426
2020-04-24 00:34:13 FLAPS EXTENSION 85 % 1111424
2020-04-24 00:34:14 FLAPS EXTENSION 86 % 1101423
2020-04-24 00:34:14 FLAPS EXTENSION 87 % 1101420
2020-04-24 00:34:14 FLAPS EXTENSION 88 % 1101419
2020-04-24 00:34:14 FLAPS EXTENSION 89 % 1091417
2020-04-24 00:34:15 FLAPS EXTENSION 89 % 1091415
2020-04-24 00:34:15 FLAPS EXTENSION 90 % 1091413
2020-04-24 00:34:15 FLAPS EXTENSION 91 % 1081412
2020-04-24 00:34:15 FLAPS EXTENSION 92 % 1081410
2020-04-24 00:34:16 FLAPS EXTENSION 93 % 1081408
2020-04-24 00:34:16 FLAPS EXTENSION 94 % 1071407
2020-04-24 00:34:16 FLAPS EXTENSION 95 % 1071405
2020-04-24 00:34:17 FLAPS EXTENSION 96 % 1061401
2020-04-24 00:34:17 FLAPS EXTENSION 97 % 1061399
2020-04-24 00:34:17 FLAPS EXTENSION 98 % 1051398
2020-04-24 00:34:17 FLAPS EXTENSION 99 % 1051396
2020-04-24 00:34:17 FLAPS EXTENSION 99 % 1041394
2020-04-24 00:34:21 FLAPS EXTENSION 100 % 1001368
2020-04-24 00:36:24 LANDING9192
2020-04-24 00:36:46 FLAPS EXTENSION 97 % 5190
2020-04-24 00:36:46 FLAPS EXTENSION 96 % 5090
2020-04-24 00:36:47 FLAPS EXTENSION 93 % 4989
2020-04-24 00:36:47 FLAPS EXTENSION 91 % 4890
2020-04-24 00:36:47 FLAPS EXTENSION 89 % 4690
2020-04-24 00:36:48 FLAPS EXTENSION 87 % 4590
2020-04-24 00:36:48 FLAPS EXTENSION 86 % 4390
2020-04-24 00:36:48 FLAPS EXTENSION 85 % 4290
2020-04-24 00:36:48 FLAPS EXTENSION 83 % 4090
2020-04-24 00:36:48 FLAPS EXTENSION 82 % 3990
2020-04-24 00:36:49 FLAPS EXTENSION 81 % 3790
2020-04-24 00:36:49 FLAPS EXTENSION 80 % 3690
2020-04-24 00:36:49 FLAPS EXTENSION 79 % 3790
2020-04-24 00:36:49 FLAPS EXTENSION 77 % 3390
2020-04-24 00:36:49 FLAPS EXTENSION 76 % 3290
2020-04-24 00:36:49 FLAPS EXTENSION 75 % 3090
2020-04-24 00:36:50 FLAPS EXTENSION 74 % 3190
2020-04-24 00:36:50 FLAPS EXTENSION 73 % 2790
2020-04-24 00:36:50 FLAPS EXTENSION 71 % 2390
2020-04-24 00:36:57 TAXI TO THE GATE2090
2020-04-24 00:37:07 FLAPS EXTENSION 71 % 1590
2020-04-24 00:37:07 FLAPS EXTENSION 69 % 1590
2020-04-24 00:37:07 FLAPS EXTENSION 67 % 1590
2020-04-24 00:37:07 FLAPS EXTENSION 66 % 1590
2020-04-24 00:37:08 FLAPS EXTENSION 64 % 1590
2020-04-24 00:37:08 FLAPS EXTENSION 63 % 1590
2020-04-24 00:37:08 FLAPS EXTENSION 59 % 1590
2020-04-24 00:37:09 FLAPS EXTENSION 57 % 1590
2020-04-24 00:37:09 FLAPS EXTENSION 56 % 1490
2020-04-24 00:37:09 FLAPS EXTENSION 55 % 1490
2020-04-24 00:37:09 FLAPS EXTENSION 54 % 1490
2020-04-24 00:37:10 FLAPS EXTENSION 52 % 1490
2020-04-24 00:37:10 FLAPS EXTENSION 52 % 1489
2020-04-24 00:37:10 FLAPS EXTENSION 47 % 1489
2020-04-24 00:37:11 FLAPS EXTENSION 46 % 1489
2020-04-24 00:37:11 FLAPS EXTENSION 45 % 1489
2020-04-24 00:37:11 FLAPS EXTENSION 44 % 1489
2020-04-24 00:37:11 FLAPS EXTENSION 43 % 1389
2020-04-24 00:37:11 FLAPS EXTENSION 42 % 1389
2020-04-24 00:37:11 FLAPS EXTENSION 41 % 1389
2020-04-24 00:37:12 FLAPS EXTENSION 40 % 1389
2020-04-24 00:37:12 FLAPS EXTENSION 39 % 1389
2020-04-24 00:37:12 FLAPS EXTENSION 37 % 1389
2020-04-24 00:37:12 FLAPS EXTENSION 36 % 1389
2020-04-24 00:37:13 FLAPS EXTENSION 35 % 1389
2020-04-24 00:37:13 FLAPS EXTENSION 34 % 1389
2020-04-24 00:37:13 FLAPS EXTENSION 33 % 1389
2020-04-24 00:37:13 FLAPS EXTENSION 32 % 1389
2020-04-24 00:37:13 FLAPS EXTENSION 31 % 1289
2020-04-24 00:37:14 FLAPS EXTENSION 30 % 1289
2020-04-24 00:37:14 FLAPS EXTENSION 28 % 1289
2020-04-24 00:37:14 FLAPS EXTENSION 28 % 1289
2020-04-24 00:37:14 FLAPS EXTENSION 27 % 1289
2020-04-24 00:37:14 FLAPS EXTENSION 26 % 1289
2020-04-24 00:37:15 FLAPS EXTENSION 25 % 1289
2020-04-24 00:37:15 FLAPS EXTENSION 24 % 1289
2020-04-24 00:37:15 FLAPS EXTENSION 23 % 1289
2020-04-24 00:37:15 FLAPS EXTENSION 22 % 1289
2020-04-24 00:37:15 FLAPS EXTENSION 22 % 1289
2020-04-24 00:37:15 FLAPS EXTENSION 21 % 1289
2020-04-24 00:37:16 FLAPS EXTENSION 20 % 1289
2020-04-24 00:37:16 FLAPS EXTENSION 19 % 1289
2020-04-24 00:37:16 FLAPS EXTENSION 18 % 1289
2020-04-24 00:37:16 FLAPS EXTENSION 17 % 1289
2020-04-24 00:37:16 FLAPS EXTENSION 16 % 1289
2020-04-24 00:37:17 FLAPS EXTENSION 16 % 1289
2020-04-24 00:37:17 FLAPS EXTENSION 15 % 1289
2020-04-24 00:37:17 FLAPS EXTENSION 14 % 1289
2020-04-24 00:37:17 FLAPS EXTENSION 13 % 1289
2020-04-24 00:37:17 FLAPS EXTENSION 12 % 1289
2020-04-24 00:37:18 FLAPS EXTENSION 11 % 1289
2020-04-24 00:37:18 FLAPS EXTENSION 10 % 1289
2020-04-24 00:37:18 FLAPS EXTENSION 10 % 1289
2020-04-24 00:37:18 FLAPS EXTENSION 9 % 1289
2020-04-24 00:37:19 FLAPS EXTENSION 8 % 1289
2020-04-24 00:37:19 FLAPS EXTENSION 7 % 1289
2020-04-24 00:37:19 FLAPS EXTENSION 6 % 1289
2020-04-24 00:37:19 FLAPS EXTENSION 5 % 1289
2020-04-24 00:37:20 FLAPS EXTENSION 4 % 1289
2020-04-24 00:37:20 FLAPS EXTENSION 3 % 1289
2020-04-24 00:37:20 FLAPS EXTENSION 2 % 1289
2020-04-24 00:37:20 FLAPS EXTENSION 2 % 1289
2020-04-24 00:37:20 FLAPS EXTENSION 1 % 1289
2020-04-24 00:37:21 FLAPS EXTENSION 0 % 1289
2020-04-24 00:38:41 STOPPING ENGINE 1 290
2020-04-24 00:40:18 STOPPING ENGINE 2 089
 ACARS DATA
DATE IASGSALTITUDEFUEL CONSUMED OATFLIGHT STATUS
2020-04-23 23:50:3900219132BOARDING
2020-04-23 23:51:3900219132BOARDING
2020-04-23 23:52:3900219332BOARDING
2020-04-23 23:53:3900219832BOARDING
2020-04-23 23:54:39002191832BOARDING
2020-04-23 23:55:39002192732BOARDING
2020-04-23 23:56:39002193432BOARDING
2020-04-23 23:57:39002194232BOARDING
2020-04-23 23:58:39002195032BOARDING
2020-04-23 23:59:39032195732BOARDING
2020-04-24 00:00:39032196532BOARDING
2020-04-24 00:01:39002197232BOARDING
2020-04-24 00:02:39002198032BOARDING
2020-04-24 00:03:39002198732BOARDING
2020-04-24 00:04:39002199132BOARDING
2020-04-24 00:05:39002199432BOARDING
2020-04-24 00:06:39042229432TAXI TO THE RWY
2020-04-24 00:07:390021910032TAXI TO THE RWY
2020-04-24 00:08:390021910732TAXI TO THE RWY
2020-04-24 00:09:397621911531TAXI TO THE RWY
2020-04-24 00:10:39827821912631TAXI TO THE RWY
2020-04-24 00:11:39141138108314729CLIMBING
2020-04-24 00:12:39152151242816526CLIMBING
2020-04-24 00:13:39153156382918422CLIMBING
2020-04-24 00:14:39156162511220219CLIMBING
2020-04-24 00:15:39171180579521418CLIMBING
2020-04-24 00:16:39203217596922817CRUISE
2020-04-24 00:17:39211226512123917CRUISE
2020-04-24 00:18:39208223592525017CRUISE
2020-04-24 00:19:39204219600126217CRUISE
2020-04-24 00:20:39207221594427317DESCEND
2020-04-24 00:21:39206219599528617CRUISE
2020-04-24 00:22:39205219600229817CRUISE
2020-04-24 00:23:39205218600630917CRUISE
2020-04-24 00:24:39206218552932018DESCEND
2020-04-24 00:25:39207217496433119DESCEND
2020-04-24 00:24:55207215449834020DESCEND
2020-04-24 00:25:55210218407034722DESCEND
2020-04-24 00:26:55208214337335523DESCEND
2020-04-24 00:27:55198201302636324DESCEND
2020-04-24 00:28:55210215311237524CRUISE
2020-04-24 00:29:55210212274038725DESCEND
2020-04-24 00:30:55209211227339826DESCEND
2020-04-24 00:31:55199201208440626CRUISE
2020-04-24 00:32:55187189214142226CLIMBING
2020-04-24 00:33:55124121168742527DESCEND
2020-04-24 00:34:551049699543829DESCEND
2020-04-24 00:35:551009133844931DESCEND
2020-04-24 00:36:552198945931LANDED
2020-04-24 00:37:552098946731TAXI TO THE GATE
2020-04-24 00:38:550168947431TAXI TO THE GATE
2020-04-24 00:39:55008947831TAXI TO THE GATE